Time;durP1;ratioP1;P1;durP2;ratioP2;P2;SDS_P1;SDS_P2;PMS_P1;PMS_P2;Temp;Humidity;BMP_temperature;BMP_pressure;BME280_temperature;BME280_humidity;BME280_pressure;Samples;Min_cycle;Max_cycle;Signal;HPM_P1;HPM_P2
2023/01/02 00:00:27;;;;;;;24.23;18.90;;;;;;;11.74;100.00;102547.09;2085927;28;20052;-75
2023/01/02 00:01:49;;;;;;;24.30;19.17;;;;;;;11.72;100.00;102541.72;2086881;28;20048;-75
2023/01/02 00:03:10;;;;;;;26.42;19.85;;;;;;;11.71;100.00;102541.63;2097210;28;20082;-75
2023/01/02 00:04:34;;;;;;;23.83;17.80;;;;;;;11.66;100.00;102546.75;2094089;28;20049;-75
2023/01/02 00:05:57;;;;;;;26.80;19.42;;;;;;;11.61;100.00;102550.97;2086599;28;20057;-74
2023/01/02 00:07:20;;;;;;;26.08;19.85;;;;;;;11.57;100.00;102554.31;2084423;28;20616;-75
2023/01/02 00:08:42;;;;;;;27.58;19.63;;;;;;;11.52;100.00;102553.22;2094907;28;20052;-74
2023/01/02 00:10:05;;;;;;;27.38;20.88;;;;;;;11.52;100.00;102559.44;2086734;28;20057;-75
2023/01/02 00:11:28;;;;;;;26.67;20.55;;;;;;;11.53;100.00;102555.94;2090982;28;20047;-75
2023/01/02 00:12:50;;;;;;;26.05;20.38;;;;;;;11.55;100.00;102562.19;2088324;28;20397;-75
2023/01/02 00:14:12;;;;;;;24.00;18.35;;;;;;;11.59;100.00;102563.22;2102489;28;20055;-75
2023/01/02 00:15:34;;;;;;;25.17;20.23;;;;;;;11.64;100.00;102566.94;2097414;28;20059;-75
2023/01/02 00:16:57;;;;;;;27.80;20.33;;;;;;;11.68;100.00;102566.25;2097500;28;20040;-75
2023/01/02 00:18:19;;;;;;;28.08;19.83;;;;;;;11.70;100.00;102559.25;2089331;28;20056;-75
2023/01/02 00:19:41;;;;;;;28.98;21.80;;;;;;;11.73;100.00;102555.84;2092590;28;20037;-75
2023/01/02 00:21:03;;;;;;;33.47;25.00;;;;;;;11.74;100.00;102558.59;2093438;28;21779;-75
2023/01/02 00:22:26;;;;;;;27.23;19.92;;;;;;;11.75;100.00;102554.22;2097892;28;20048;-75
2023/01/02 00:23:49;;;;;;;27.15;19.40;;;;;;;11.76;100.00;102553.34;2087444;28;20094;-75
2023/01/02 00:25:11;;;;;;;25.13;19.98;;;;;;;11.78;100.00;102555.22;2100451;28;20420;-75
2023/01/02 00:26:34;;;;;;;24.42;19.92;;;;;;;11.78;100.00;102557.84;2089361;28;20508;-75
2023/01/02 00:27:56;;;;;;;25.33;18.63;;;;;;;11.79;100.00;102550.81;2100290;28;20040;-75
2023/01/02 00:29:17;;;;;;;22.58;17.05;;;;;;;11.78;100.00;102549.91;2094601;28;20136;-75
2023/01/02 00:30:40;;;;;;;25.17;19.27;;;;;;;11.78;100.00;102549.91;2087681;28;20045;-75
2023/01/02 00:32:03;;;;;;;21.77;17.08;;;;;;;11.77;100.00;102553.41;2094122;28;20072;-75
2023/01/02 00:33:25;;;;;;;26.10;18.73;;;;;;;11.77;100.00;102547.19;2103362;28;20079;-76
2023/01/02 00:34:47;;;;;;;29.40;21.10;;;;;;;11.74;100.00;102547.09;2102269;28;20473;-74
2023/01/02 00:36:12;;;;;;;27.73;20.80;;;;;;;11.72;100.00;102551.38;2102936;28;20043;-75
2023/01/02 00:37:36;;;;;;;30.50;23.30;;;;;;;11.70;100.00;102545.13;2102111;28;20085;-75
2023/01/02 00:38:59;;;;;;;34.50;25.70;;;;;;;11.70;100.00;102545.13;2102192;28;20073;-75
2023/01/02 00:40:21;;;;;;;44.78;33.30;;;;;;;11.72;100.00;102544.34;2102862;28;20138;-75
2023/01/02 00:41:43;;;;;;;32.85;24.90;;;;;;;11.76;100.00;102541.00;2093688;28;20520;-75
2023/01/02 00:43:06;;;;;;;31.58;24.38;;;;;;;11.82;100.00;102540.34;2094716;28;20065;-75
2023/01/02 00:44:28;;;;;;;32.20;23.70;;;;;;;11.85;100.00;102543.13;2089065;28;20400;-75
2023/01/02 00:45:50;;;;;;;37.13;26.85;;;;;;;11.84;100.00;102547.50;2100595;28;20055;-75
2023/01/02 00:47:12;;;;;;;35.20;25.73;;;;;;;11.86;100.00;102535.25;2110618;28;20511;-75
2023/01/02 00:48:34;;;;;;;30.30;23.63;;;;;;;11.90;100.00;102538.91;2104914;28;20113;-75
2023/01/02 00:49:57;;;;;;;22.70;16.52;;;;;;;11.90;100.00;102542.47;2094161;28;20723;-75
2023/01/02 00:51:19;;;;;;;28.60;19.85;;;;;;;11.88;100.00;102535.31;2105709;28;20097;-75
2023/01/02 00:52:43;;;;;;;22.88;17.60;;;;;;;11.85;100.00;102540.47;2096941;28;20079;-75
2023/01/02 00:54:05;;;;;;;27.63;19.73;;;;;;;11.82;100.00;102535.94;2080407;28;20045;-74
2023/01/02 00:55:27;;;;;;;24.85;19.25;;;;;;;11.84;100.00;102534.28;2091477;28;20059;-74
2023/01/02 00:56:49;;;;;;;25.60;19.13;;;;;;;11.87;100.00;102536.16;2101159;28;20584;-74
2023/01/02 00:58:11;;;;;;;24.52;18.95;;;;;;;11.89;100.00;102545.03;2095320;28;20147;-74
2023/01/02 00:59:34;;;;;;;26.23;19.50;;;;;;;11.87;100.00;102541.44;2094550;28;20134;-74
2023/01/02 01:00:56;;;;;;;26.85;20.35;;;;;;;11.82;100.00;102543.00;2088579;28;20060;-74
2023/01/02 01:02:18;;;;;;;33.08;24.02;;;;;;;11.79;100.00;102541.16;2097146;28;20137;-74
2023/01/02 01:03:42;;;;;;;29.27;20.33;;;;;;;11.78;100.00;102547.28;2097000;28;20051;-74
2023/01/02 01:05:05;;;;;;;26.08;19.73;;;;;;;11.74;100.00;102545.38;2096116;28;20041;-75
2023/01/02 01:06:27;;;;;;;26.42;19.58;;;;;;;11.72;100.00;102544.34;2096590;28;20051;-74
2023/01/02 01:07:51;;;;;;;25.23;18.70;;;;;;;11.71;100.00;102545.19;2102671;28;20193;-73
2023/01/02 01:09:13;;;;;;;27.90;21.42;;;;;;;11.73;100.00;102540.88;2101933;28;20048;-74
2023/01/02 01:10:37;;;;;;;28.73;22.27;;;;;;;11.77;100.00;102534.88;2085514;28;20106;-74
2023/01/02 01:12:00;;;;;;;27.52;21.75;;;;;;;11.81;100.00;102542.13;2093328;28;20045;-74
2023/01/02 01:13:21;;;;;;;24.58;19.75;;;;;;;11.82;100.00;102540.34;2088857;28;20056;-74
2023/01/02 01:14:44;;;;;;;25.10;20.33;;;;;;;11.82;100.00;102543.00;2090768;28;20094;-74
2023/01/02 01:16:07;;;;;;;24.98;18.58;;;;;;;11.80;100.00;102544.69;2083318;28;20103;-75
2023/01/02 01:17:29;;;;;;;25.55;19.25;;;;;;;11.79;100.00;102546.44;2099083;28;20058;-74
2023/01/02 01:18:56;;;;;;;26.20;19.15;;;;;;;11.83;100.00;102539.50;2095950;28;20040;-74
2023/01/02 01:20:19;;;;;;;24.60;19.75;;;;;;;11.87;100.00;102538.81;2102837;28;20059;-74
2023/01/02 01:21:41;;;;;;;24.52;18.20;;;;;;;11.89;100.00;102535.34;2094250;28;20056;-74
2023/01/02 01:23:06;;;;;;;29.23;19.88;;;;;;;11.90;100.00;102536.25;2092477;28;20087;-74
2023/01/02 01:24:28;;;;;;;25.95;19.02;;;;;;;11.90;100.00;102530.97;2101876;28;20051;-74
2023/01/02 01:25:49;;;;;;;28.95;19.23;;;;;;;11.92;100.00;102529.28;2095121;28;20516;-74
2023/01/02 01:27:12;;;;;;;26.88;19.05;;;;;;;11.94;100.00;102527.63;2094230;28;20040;-74
2023/01/02 01:28:34;;;;;;;25.15;18.00;;;;;;;11.98;100.00;102521.59;2094031;28;20421;-74
2023/01/02 01:29:56;;;;;;;24.75;18.08;;;;;;;12.01;100.00;102520.81;2098170;28;20452;-74
2023/01/02 01:31:17;;;;;;;24.10;19.05;;;;;;;12.05;100.00;102528.91;2078989;28;20493;-74
2023/01/02 01:32:40;;;;;;;25.02;19.00;;;;;;;12.08;100.00;102526.38;2090730;28;20451;-74
2023/01/02 01:34:02;;;;;;;25.15;18.80;;;;;;;12.10;100.00;102524.69;2102271;28;20059;-74
2023/01/02 01:35:26;;;;;;;25.52;18.40;;;;;;;12.10;100.00;102522.03;2097721;28;20086;-74
2023/01/02 01:36:48;;;;;;;26.08;19.30;;;;;;;12.11;100.00;102525.59;2094248;28;20436;-75
2023/01/02 01:38:12;;;;;;;26.42;20.45;;;;;;;12.10;100.00;102519.38;2090890;28;20048;-75
2023/01/02 01:39:34;;;;;;;25.88;19.38;;;;;;;12.11;100.00;102515.00;2100460;28;20059;-75
2023/01/02 01:40:55;;;;;;;25.67;18.23;;;;;;;12.14;100.00;102525.72;2093033;28;20059;-75
2023/01/02 01:42:18;;;;;;;24.70;18.92;;;;;;;12.18;100.00;102524.97;2099675;28;20044;-75
2023/01/02 01:43:42;;;;;;;26.08;18.60;;;;;;;12.20;100.00;102524.22;2099941;28;20126;-75
2023/01/02 01:45:13;;;;;;;26.17;18.77;;;;;;;12.25;100.00;102524.38;2093923;28;20171;-75
2023/01/02 01:46:39;;;;;;;24.90;19.77;;;;;;;12.31;100.00;102527.25;2095339;28;20592;-75
2023/01/02 01:48:01;;;;;;;23.20;17.88;;;;;;;12.34;100.00;102522.94;2094563;28;20066;-75
2023/01/02 01:49:27;;;;;;;27.35;19.20;;;;;;;12.37;100.00;102524.81;2102453;28;20085;-75
2023/01/02 01:50:51;;;;;;;22.33;17.38;;;;;;;12.38;100.00;102526.63;2088140;28;20385;-75
2023/01/02 01:52:15;;;;;;;27.63;20.35;;;;;;;12.39;100.00;102523.13;2094217;28;20052;-75
2023/01/02 01:53:39;;;;;;;25.45;19.50;;;;;;;12.39;100.00;102520.47;2088081;28;20520;-75
2023/01/02 01:55:06;;;;;;;26.75;20.13;;;;;;;12.40;100.00;102522.28;2100020;28;20585;-75
2023/01/02 01:56:29;;;;;;;23.48;18.17;;;;;;;12.38;100.00;102519.56;2110601;28;20051;-75
2023/01/02 01:57:56;;;;;;;25.15;17.98;;;;;;;12.40;100.00;102519.63;2088031;28;20513;-75
2023/01/02 01:59:18;;;;;;;24.88;18.35;;;;;;;12.40;100.00;102517.00;2100976;28;20538;-75
2023/01/02 02:00:42;;;;;;;26.33;18.63;;;;;;;12.38;100.00;102514.28;2096629;28;20373;-75
2023/01/02 02:02:03;;;;;;;23.23;16.88;;;;;;;12.38;100.00;102518.69;2081439;28;20324;-75
2023/01/02 02:03:29;;;;;;;23.63;17.83;;;;;;;12.39;100.00;102520.47;2088854;28;20500;-75
2023/01/02 02:04:50;;;;;;;25.58;18.58;;;;;;;12.42;100.00;102519.66;2090815;28;20473;-76
2023/01/02 02:06:13;;;;;;;24.02;17.73;;;;;;;12.41;100.00;102516.13;2101259;28;20052;-75
2023/01/02 02:07:41;;;;;;;25.92;19.27;;;;;;;12.37;100.00;102517.78;2088438;28;20389;-75
2023/01/02 02:09:13;;;;;;;28.85;18.63;;;;;;;12.32;100.00;102518.44;2093021;28;20083;-75
2023/01/02 02:10:37;;;;;;;28.15;19.58;;;;;;;12.28;100.00;102511.22;2082571;28;20060;-75
2023/01/02 02:11:59;;;;;;;24.42;18.48;;;;;;;12.25;100.00;102521.72;2091579;28;20052;-75
2023/01/02 02:13:22;;;;;;;25.65;19.83;;;;;;;12.22;100.00;102511.91;2077403;28;20397;-75
2023/01/02 02:14:47;;;;;;;28.25;19.55;;;;;;;12.19;100.00;102514.44;2095887;28;20560;-74
2023/01/02 02:16:25;;;;;;;28.30;21.27;;;;;;;12.19;100.00;102510.91;2096525;28;20135;-75
2023/01/02 02:18:00;;;;;;;31.80;23.88;;;;;;;12.18;100.00;102510.00;2096672;28;20048;-75
2023/01/02 02:19:44;;;;;;;26.35;19.98;;;;;;;12.15;100.00;102509.88;2087163;28;20045;-75
2023/01/02 02:21:17;;;;;;;24.65;18.42;;;;;;;12.10;100.00;102505.25;2101120;28;20062;-75
2023/01/02 02:23:11;;;;;;;23.45;17.35;;;;;;;12.04;100.00;102505.03;2096483;28;20063;-74
2023/01/02 02:24:53;;;;;;;24.77;17.85;;;;;;;11.95;100.00;102500.28;2112900;28;20503;-74
2023/01/02 02:26:48;;;;;;;27.15;19.63;;;;;;;11.88;100.00;102504.44;2097394;28;20389;-75
2023/01/02 02:28:33;;;;;;;31.95;21.65;;;;;;;11.86;100.00;102498.19;2090864;28;20075;-75
2023/01/02 02:30:17;;;;;;;32.70;23.38;;;;;;;11.86;100.00;102505.25;2095740;28;20075;-74
2023/01/02 02:31:50;;;;;;;33.42;25.05;;;;;;;11.88;100.00;102511.50;2098213;28;20140;-75
2023/01/02 02:33:33;;;;;;;29.25;20.20;;;;;;;11.88;100.00;102503.56;2091475;28;20065;-74
2023/01/02 02:35:03;;;;;;;27.17;20.42;;;;;;;11.90;100.00;102507.16;2096489;28;20048;-75
2023/01/02 02:36:34;;;;;;;28.17;20.67;;;;;;;11.90;100.00;102507.16;2095716;28;20047;-75
2023/01/02 02:38:05;;;;;;;26.25;19.90;;;;;;;11.91;100.00;102507.22;2093431;28;20052;-74
2023/01/02 02:39:42;;;;;;;25.65;19.70;;;;;;;11.94;100.00;102498.50;2103382;28;20059;-75
2023/01/02 02:41:16;;;;;;;26.58;19.90;;;;;;;11.98;100.00;102501.31;2088027;28;20045;-75
2023/01/02 02:42:49;;;;;;;24.98;18.88;;;;;;;12.05;100.00;102505.09;2079068;28;20042;-74
2023/01/02 02:44:25;;;;;;;26.08;19.02;;;;;;;12.10;100.00;102500.84;2094760;28;20052;-75
2023/01/02 02:45:58;;;;;;;25.00;18.80;;;;;;;12.16;100.00;102502.81;2089472;28;20108;-75
2023/01/02 02:47:28;;;;;;;27.38;19.73;;;;;;;12.18;100.00;102512.66;2085882;28;20487;-75
2023/01/02 02:49:04;;;;;;;25.17;18.70;;;;;;;12.21;100.00;102507.44;2084825;28;20467;-75
2023/01/02 02:50:31;;;;;;;22.95;17.08;;;;;;;12.24;100.00;102507.56;2092612;28;20056;-75
2023/01/02 02:52:00;;;;;;;25.80;18.75;;;;;;;12.28;100.00;102504.19;2092684;28;20449;-75
2023/01/02 02:53:24;;;;;;;25.50;18.42;;;;;;;12.32;100.00;102503.47;2094749;28;20048;-75
2023/01/02 02:54:51;;;;;;;28.02;20.80;;;;;;;12.33;100.00;102504.38;2088020;28;20360;-75
2023/01/02 02:56:16;;;;;;;28.48;19.20;;;;;;;12.29;100.00;102498.03;2093184;28;20053;-75
2023/01/02 02:57:41;;;;;;;28.80;20.02;;;;;;;12.24;100.00;102499.63;2093945;28;20127;-75
2023/01/02 02:59:05;;;;;;;23.08;19.25;;;;;;;12.20;100.00;102491.53;2093877;28;20041;-75
2023/01/02 03:00:27;;;;;;;26.30;18.67;;;;;;;12.11;100.00;102500.03;2093198;28;20056;-75
2023/01/02 03:01:53;;;;;;;25.17;18.65;;;;;;;12.07;100.00;102495.47;2087315;28;20393;-75
2023/01/02 03:03:17;;;;;;;22.92;18.10;;;;;;;12.07;100.00;102495.47;2093953;28;20412;-75
2023/01/02 03:04:39;;;;;;;26.05;18.52;;;;;;;12.06;100.00;102506.91;2101018;28;20096;-75
2023/01/02 03:06:15;;;;;;;24.27;18.42;;;;;;;12.11;100.00;102501.75;2095464;28;20044;-74
2023/01/02 03:07:46;;;;;;;26.13;18.42;;;;;;;12.17;100.00;102494.03;2086686;28;20098;-75
2023/01/02 03:09:16;;;;;;;28.95;20.35;;;;;;;12.21;100.00;102488.00;2092915;28;20045;-75
2023/01/02 03:10:47;;;;;;;25.55;19.63;;;;;;;12.26;100.00;102492.66;2091048;28;20421;-75
2023/01/02 03:12:19;;;;;;;23.50;17.90;;;;;;;12.33;100.00;102499.06;2092943;28;20076;-75
2023/01/02 03:13:51;;;;;;;23.67;17.58;;;;;;;12.41;100.00;102499.31;2080584;28;20140;-74
2023/01/02 03:15:16;;;;;;;;;;;;;;;12.43;100.00;102501.19;2092589;28;20051;-75
2023/01/02 03:16:42;;;;;;;25.73;19.70;;;;;;;12.50;100.00;102492.63;2092353;28;20296;-75
2023/01/02 03:18:18;;;;;;;25.58;19.25;;;;;;;12.55;100.00;102496.31;2093474;28;20043;-75
2023/01/02 03:19:45;;;;;;;25.42;18.73;;;;;;;12.55;100.00;102491.03;2094134;28;20404;-75
2023/01/02 03:21:12;;;;;;;25.55;18.75;;;;;;;12.56;100.00;102499.88;2094320;28;20745;-75
2023/01/02 03:22:40;;;;;;;23.00;16.77;;;;;;;12.54;100.00;102496.25;2087386;28;20049;-75
2023/01/02 03:24:07;;;;;;;22.95;17.63;;;;;;;12.48;100.00;102490.75;2090398;28;20059;-74
2023/01/02 03:25:32;;;;;;;25.13;18.80;;;;;;;12.42;100.00;102494.09;2084293;28;20053;-75
2023/01/02 03:27:02;;;;;;;26.75;19.90;;;;;;;12.40;100.00;102484.31;2086138;28;20056;-75
2023/01/02 03:28:27;;;;;;;28.63;21.70;;;;;;;12.38;100.00;102492.19;2094385;28;20098;-74
2023/01/02 03:29:55;;;;;;;30.40;22.77;;;;;;;12.40;100.00;102492.25;2077333;28;20049;-75
2023/01/02 03:31:21;;;;;;;27.48;21.50;;;;;;;12.41;100.00;102489.63;2090751;28;20052;-75
2023/01/02 03:32:49;;;;;;;28.08;21.05;;;;;;;12.46;100.00;102489.81;2094085;28;20398;-74
2023/01/02 03:34:17;;;;;;;26.75;20.85;;;;;;;12.49;100.00;102488.16;2085345;28;20045;-74
2023/01/02 03:35:43;;;;;;;25.60;19.42;;;;;;;12.54;100.00;102485.66;2083889;28;20481;-75
2023/01/02 03:37:10;;;;;;;70.28;50.38;;;;;;;12.57;100.00;102476.09;2094760;28;20487;-75
2023/01/02 03:38:39;;;;;;;37.45;26.10;;;;;;;12.59;100.00;102476.16;2095306;28;20040;-75
2023/01/02 03:40:07;;;;;;;28.85;21.98;;;;;;;12.60;100.00;102486.78;2093413;28;20530;-75
2023/01/02 03:41:34;;;;;;;27.08;21.50;;;;;;;12.60;100.00;102486.78;2086220;28;20421;-75
2023/01/02 03:43:01;;;;;;;29.08;21.38;;;;;;;12.60;100.00;102489.44;2095898;28;20516;-75
2023/01/02 03:44:28;;;;;;;30.33;22.10;;;;;;;12.59;100.00;102489.41;2095272;28;20162;-75
2023/01/02 03:45:56;;;;;;;27.23;21.17;;;;;;;12.59;100.00;102486.75;2086983;28;20540;-75
2023/01/02 03:47:28;;;;;;;29.92;21.52;;;;;;;12.57;100.00;102489.34;2094065;28;20044;-75
2023/01/02 03:48:54;;;;;;;29.65;22.63;;;;;;;12.56;100.00;102484.88;2103976;28;20040;-75
2023/01/02 03:50:21;;;;;;;27.83;20.60;;;;;;;12.55;100.00;102480.44;2084167;28;20098;-75
2023/01/02 03:51:43;;;;;;;27.52;21.63;;;;;;;12.54;100.00;102483.91;2101336;28;20381;-75
2023/01/02 03:53:07;;;;;;;28.27;21.05;;;;;;;12.54;100.00;102489.22;2097618;28;20041;-75
2023/01/02 03:54:29;;;;;;;28.05;21.10;;;;;;;12.52;100.00;102484.72;2094433;28;20056;-75
2023/01/02 03:56:03;;;;;;;29.60;21.17;;;;;;;12.52;100.00;102490.03;2097071;28;20470;-75
2023/01/02 03:57:32;;;;;;;27.02;20.98;;;;;;;12.48;100.00;102488.09;2096507;28;20111;-75
2023/01/02 03:58:59;;;;;;;30.33;22.45;;;;;;;12.47;100.00;102496.94;2089128;28;20044;-75
2023/01/02 04:00:21;;;;;;;27.63;20.98;;;;;;;12.42;100.00;102501.13;2082604;28;20401;-75
2023/01/02 04:01:47;;;;;;;;;;;;;;;12.34;100.00;102506.16;2092208;28;20048;-75
2023/01/02 04:03:14;;;;;;;23.52;18.88;;;;;;;12.36;100.00;102517.72;2087081;28;19927;-75
2023/01/02 04:04:42;;;;;;;25.63;18.88;;;;;;;12.43;100.00;102506.50;2093869;28;20040;-75
2023/01/02 04:06:13;;;;;;;24.67;18.13;;;;;;;12.50;100.00;102515.56;2087641;28;20049;-75
2023/01/02 04:07:42;;;;;;;24.55;19.40;;;;;;;12.57;100.00;102514.94;2102456;28;20101;-75
2023/01/02 04:09:10;;;;;;;25.73;19.33;;;;;;;12.64;100.00;102509.91;2089109;28;20095;-75
2023/01/02 04:10:35;;;;;;;24.98;18.63;;;;;;;12.71;100.00;102511.94;2087589;28;20041;-75
2023/01/02 04:12:02;;;;;;;25.15;18.40;;;;;;;12.73;100.00;102520.81;2086954;28;20114;-75
2023/01/02 04:13:29;;;;;;;23.17;18.10;;;;;;;12.79;100.00;102514.84;2083753;28;20099;-75
2023/01/02 04:14:59;;;;;;;23.10;18.63;;;;;;;12.83;100.00;102510.53;2093713;28;20082;-75
2023/01/02 04:16:24;;;;;;;23.45;17.00;;;;;;;12.84;100.00;102509.69;2103520;28;20558;-75
2023/01/02 04:17:53;;;;;;;20.38;15.25;;;;;;;12.88;100.00;102512.50;2097561;28;20036;-75
2023/01/02 04:19:22;;;;;;;22.25;17.30;;;;;;;12.94;100.00;102509.16;2095528;28;20044;-75
2023/01/02 04:20:50;;;;;;;27.65;23.80;;;;;;;12.97;100.00;102509.28;2095696;28;20056;-75
2023/01/02 04:22:21;;;;;;;27.38;21.45;;;;;;;12.93;100.00;102510.91;2085247;28;20049;-75
2023/01/02 04:23:48;;;;;;;30.85;24.98;;;;;;;12.93;100.00;102515.34;2094495;28;20044;-75
2023/01/02 04:25:14;;;;;;;32.80;28.17;;;;;;;12.95;100.00;102519.81;2079272;28;20621;-75
2023/01/02 04:26:43;;;;;;;32.10;27.00;;;;;;;12.94;100.00;102518.00;2098351;28;20089;-75
2023/01/02 04:28:12;;;;;;;37.95;31.88;;;;;;;12.90;100.00;102513.47;2088523;28;20532;-74
2023/01/02 04:29:35;;;;;;;35.08;30.92;;;;;;;12.81;100.00;102517.53;2094315;28;20044;-74
2023/01/02 04:31:03;;;;;;;36.22;29.48;;;;;;;12.74;100.00;102527.00;2086252;28;20041;-75
2023/01/02 04:32:31;;;;;;;36.75;29.52;;;;;;;12.65;100.00;102529.38;2093483;28;20484;-75
2023/01/02 04:33:57;;;;;;;31.92;24.45;;;;;;;12.57;100.00;102534.38;2096154;28;20553;-75
2023/01/02 04:35:22;;;;;;;30.27;25.13;;;;;;;12.50;100.00;102529.72;2086732;28;20053;-75
2023/01/02 04:36:45;;;;;;;32.13;23.50;;;;;;;12.42;100.00;102525.88;2086627;28;20037;-75
2023/01/02 04:38:10;;;;;;;32.45;25.20;;;;;;;12.37;100.00;102528.38;2094300;28;20044;-75
2023/01/02 04:39:34;;;;;;;32.85;23.50;;;;;;;12.33;100.00;102534.41;2093448;28;20063;-75
2023/01/02 04:40:55;;;;;;;31.60;23.85;;;;;;;12.29;100.00;102531.56;2092008;28;20051;-75
2023/01/02 04:42:18;;;;;;;;;;;;;;;12.21;100.00;102540.97;2097353;28;20086;-75
2023/01/02 04:43:40;;;;;;;34.63;24.08;;;;;;;12.18;100.00;102547.06;2093869;28;20792;-75
2023/01/02 04:45:01;;;;;;;32.13;23.67;;;;;;;12.17;100.00;102544.34;2094377;28;20036;-76
2023/01/02 04:46:25;;;;;;;31.55;24.23;;;;;;;12.18;100.00;102547.06;2094385;28;20131;-75
2023/01/02 04:47:47;;;;;;;29.77;22.55;;;;;;;12.18;100.00;102541.78;2093001;28;20055;-74
2023/01/02 04:49:10;;;;;;;31.02;22.80;;;;;;;12.19;100.00;102545.31;2097215;28;20057;-75
2023/01/02 04:50:32;;;;;;;29.55;20.17;;;;;;;12.20;100.00;102555.97;2092641;28;20041;-75
2023/01/02 04:51:56;;;;;;;27.73;20.35;;;;;;;12.21;100.00;102551.56;2096898;28;20071;-75
2023/01/02 04:53:19;;;;;;;27.30;20.73;;;;;;;12.22;100.00;102558.66;2094239;28;20487;-75
2023/01/02 04:54:42;;;;;;;32.58;23.98;;;;;;;12.21;100.00;102557.75;2091912;28;20044;-75
2023/01/02 04:56:04;;;;;;;32.22;23.88;;;;;;;12.18;100.00;102552.34;2094817;28;20045;-75
2023/01/02 04:57:27;;;;;;;31.45;22.42;;;;;;;12.16;100.00;102555.78;2091665;28;20475;-74
2023/01/02 04:58:49;;;;;;;27.00;18.30;;;;;;;12.16;100.00;102555.78;2088992;28;20060;-75
2023/01/02 05:00:12;;;;;;;25.05;17.67;;;;;;;12.19;100.00;102554.16;2087586;28;20055;-75
2023/01/02 05:01:34;;;;;;;25.42;19.23;;;;;;;12.23;100.00;102560.47;2094333;28;20052;-75
2023/01/02 05:02:56;;;;;;;25.55;18.83;;;;;;;12.25;100.00;102562.34;2095996;28;20043;-74
2023/01/02 05:04:19;;;;;;;30.20;20.55;;;;;;;12.28;100.00;102558.88;2111385;28;20047;-75
2023/01/02 05:05:40;;;;;;;30.42;21.10;;;;;;;12.30;100.00;102563.41;2100576;28;20558;-75
2023/01/02 05:07:02;;;;;;;28.40;22.55;;;;;;;12.31;100.00;102565.22;2102986;28;20048;-75
2023/01/02 05:08:26;;;;;;;32.55;23.77;;;;;;;12.33;100.00;102573.22;2102557;28;20048;-74
2023/01/02 05:09:47;;;;;;;27.77;21.27;;;;;;;12.34;100.00;102567.06;2108910;28;20035;-75
2023/01/02 05:11:12;;;;;;;23.15;18.38;;;;;;;12.35;100.00;102571.50;2105624;28;20059;-75
2023/01/02 05:12:34;;;;;;;25.70;19.38;;;;;;;12.37;100.00;102567.19;2102563;28;20071;-74
2023/01/02 05:13:56;;;;;;;34.53;24.20;;;;;;;12.41;100.00;102570.84;2097027;28;20044;-74
2023/01/02 05:15:18;;;;;;;30.55;23.25;;;;;;;12.43;100.00;102572.72;2092048;28;20053;-75
2023/01/02 05:16:43;;;;;;;38.88;26.75;;;;;;;12.43;100.00;102572.72;2103091;28;20040;-75
2023/01/02 05:18:06;;;;;;;44.00;32.40;;;;;;;12.46;100.00;102569.28;2104318;28;20032;-75
2023/01/02 05:19:27;;;;;;;41.58;29.63;;;;;;;12.48;100.00;102578.16;2105495;28;20599;-75
2023/01/02 05:20:49;;;;;;;29.58;22.02;;;;;;;12.46;100.00;102574.59;2100953;28;20407;-75
2023/01/02 05:23:52;;;;;;;22.42;17.58;;;;;;;12.34;100.00;102578.56;2103022;28;20127;-75
2023/01/02 05:25:15;;;;;;;26.20;18.58;;;;;;;12.30;100.00;102575.75;2089794;28;20045;-75
2023/01/02 05:26:38;;;;;;;25.05;18.60;;;;;;;12.23;100.00;102571.97;2085653;28;20076;-75
2023/01/02 05:28:00;;;;;;;28.77;20.33;;;;;;;12.20;100.00;102573.59;2091593;28;20581;-75
2023/01/02 05:29:22;;;;;;;;;;;;;;;12.11;100.00;102570.59;2094569;28;20135;-75
2023/01/02 05:30:45;;;;;;;33.35;24.02;;;;;;;12.14;100.00;102576.91;2092407;28;20374;-75
2023/01/02 05:32:07;;;;;;;32.10;24.98;;;;;;;12.16;100.00;102575.22;2096949;28;20435;-74
2023/01/02 05:33:30;;;;;;;34.47;26.30;;;;;;;12.18;100.00;102581.50;2088624;28;20053;-75
2023/01/02 05:34:52;;;;;;;31.25;24.60;;;;;;;12.22;100.00;102572.81;2100212;28;20032;-75
2023/01/02 05:36:13;;;;;;;33.28;23.83;;;;;;;12.24;100.00;102571.13;2096201;28;20102;-74
2023/01/02 05:37:35;;;;;;;29.75;24.05;;;;;;;12.26;100.00;102576.50;2102481;28;20586;-75
2023/01/02 05:39:00;;;;;;;29.80;22.60;;;;;;;12.29;100.00;102576.59;2096241;28;20516;-75
2023/01/02 05:40:21;;;;;;;31.38;21.63;;;;;;;12.27;100.00;102579.16;2093503;28;20811;-75
2023/01/02 05:41:44;;;;;;;29.17;21.48;;;;;;;12.25;100.00;102580.88;2099788;28;20060;-75
2023/01/02 05:43:06;;;;;;;26.25;19.63;;;;;;;12.24;100.00;102572.88;2095237;28;20041;-74
2023/01/02 05:44:29;;;;;;;25.73;19.98;;;;;;;12.22;100.00;102577.19;2092912;28;20688;-75
2023/01/02 05:45:51;;;;;;;25.30;18.98;;;;;;;12.21;100.00;102581.59;2092382;28;20092;-74
2023/01/02 05:47:14;;;;;;;27.73;21.23;;;;;;;12.21;100.00;102584.22;2084364;28;20133;-74
2023/01/02 05:48:36;;;;;;;25.98;20.38;;;;;;;12.22;100.00;102585.13;2095906;28;20050;-75
2023/01/02 05:49:59;;;;;;;27.85;21.35;;;;;;;12.23;100.00;102592.25;2096056;28;20544;-75
2023/01/02 05:51:21;;;;;;;26.88;20.27;;;;;;;12.22;100.00;102587.78;2098879;28;20052;-75
2023/01/02 05:52:43;;;;;;;25.50;19.58;;;;;;;12.20;100.00;102592.16;2096889;28;20466;-75
2023/01/02 05:54:07;;;;;;;24.20;19.02;;;;;;;12.18;100.00;102594.72;2085685;28;20049;-75
2023/01/02 05:55:29;;;;;;;26.65;20.85;;;;;;;12.18;100.00;102596.47;2093465;28;20127;-75
2023/01/02 05:56:51;;;;;;;24.60;18.90;;;;;;;12.14;100.00;102598.06;2077575;28;20087;-75
2023/01/02 05:58:14;;;;;;;22.30;17.88;;;;;;;12.14;100.00;102591.91;2094083;28;20057;-75
2023/01/02 05:59:36;;;;;;;24.33;19.08;;;;;;;12.13;100.00;102598.94;2094132;28;20097;-75
2023/01/02 06:01:04;;;;;;;31.75;22.67;;;;;;;12.14;100.00;102599.84;2093932;28;20045;-75
2023/01/02 06:02:26;;;;;;;28.92;19.65;;;;;;;12.14;100.00;102600.72;2096672;28;20138;-74
2023/01/02 06:03:50;;;;;;;22.60;17.90;;;;;;;12.13;100.00;102596.31;2088239;28;20144;-74
2023/01/02 06:05:13;;;;;;;25.95;18.35;;;;;;;12.11;100.00;102605.00;2082877;28;20539;-75
2023/01/02 06:06:38;;;;;;;26.25;18.25;;;;;;;12.09;100.00;102601.41;2085352;28;20045;-75
2023/01/02 06:08:01;;;;;;;25.60;18.77;;;;;;;12.07;100.00;102605.75;2093113;28;20040;-75
2023/01/02 06:09:25;;;;;;;26.73;19.88;;;;;;;12.03;100.00;102596.75;2094039;28;20044;-75
2023/01/02 06:10:50;;;;;;;23.83;18.55;;;;;;;12.01;100.00;102597.56;2096315;28;20044;-75
2023/01/02 06:12:12;;;;;;;24.73;19.20;;;;;;;11.99;100.00;102597.50;2086019;28;20074;-75
2023/01/02 06:13:35;;;;;;;27.80;21.25;;;;;;;12.02;100.00;102599.34;2091316;28;20040;-74
2023/01/02 06:14:57;;;;;;;28.70;22.13;;;;;;;12.02;100.00;102594.06;2093950;28;20516;-75
2023/01/02 06:16:20;;;;;;;29.63;23.58;;;;;;;12.04;100.00;102603.88;2096856;28;20063;-75
2023/01/02 06:17:41;;;;;;;25.67;20.20;;;;;;;12.07;100.00;102597.81;2093508;28;20134;-75
2023/01/02 06:19:04;;;;;;;24.35;18.30;;;;;;;12.09;100.00;102602.28;2092569;28;20037;-75
2023/01/02 06:20:27;;;;;;;24.42;17.63;;;;;;;12.10;100.00;102605.84;2097848;28;20056;-75
2023/01/02 06:21:49;;;;;;;24.58;18.60;;;;;;;12.11;100.00;102610.31;2096722;28;20416;-75
2023/01/02 06:23:11;;;;;;;27.92;20.48;;;;;;;12.09;100.00;102611.97;2087836;28;20060;-75
2023/01/02 06:24:34;;;;;;;25.73;19.63;;;;;;;12.07;100.00;102608.41;2089705;28;20044;-75